sensor_id;sensor_type;location;lat;lon;timestamp;temperature;humidity
65291;SHT30;51893;59.754;10.110;2022-11-20T00:02:23;0.29;66.17
65291;SHT30;51893;59.754;10.110;2022-11-20T00:04:51;0.31;66.10
65291;SHT30;51893;59.754;10.110;2022-11-20T00:07:19;0.30;66.16
65291;SHT30;51893;59.754;10.110;2022-11-20T00:09:48;0.31;66.13
65291;SHT30;51893;59.754;10.110;2022-11-20T00:12:18;0.33;66.05
65291;SHT30;51893;59.754;10.110;2022-11-20T00:14:47;0.32;66.04
65291;SHT30;51893;59.754;10.110;2022-11-20T00:17:16;0.29;66.02
65291;SHT30;51893;59.754;10.110;2022-11-20T00:19:43;0.29;65.97
65291;SHT30;51893;59.754;10.110;2022-11-20T00:22:13;0.29;66.08
65291;SHT30;51893;59.754;10.110;2022-11-20T00:24:41;0.27;66.06
65291;SHT30;51893;59.754;10.110;2022-11-20T00:27:11;0.22;66.10
65291;SHT30;51893;59.754;10.110;2022-11-20T00:29:38;0.21;66.03
65291;SHT30;51893;59.754;10.110;2022-11-20T00:32:06;0.19;65.98
65291;SHT30;51893;59.754;10.110;2022-11-20T00:34:36;0.13;66.15
65291;SHT30;51893;59.754;10.110;2022-11-20T00:37:05;0.14;66.24
65291;SHT30;51893;59.754;10.110;2022-11-20T00:39:34;0.14;66.20
65291;SHT30;51893;59.754;10.110;2022-11-20T00:42:05;0.16;66.22
65291;SHT30;51893;59.754;10.110;2022-11-20T00:44:33;0.17;66.10
65291;SHT30;51893;59.754;10.110;2022-11-20T00:47:03;0.17;66.28
65291;SHT30;51893;59.754;10.110;2022-11-20T00:49:39;0.23;66.36
65291;SHT30;51893;59.754;10.110;2022-11-20T00:52:08;0.25;66.35
65291;SHT30;51893;59.754;10.110;2022-11-20T00:54:37;0.24;66.31
65291;SHT30;51893;59.754;10.110;2022-11-20T00:57:06;0.23;66.45
65291;SHT30;51893;59.754;10.110;2022-11-20T00:59:34;0.20;66.38
65291;SHT30;51893;59.754;10.110;2022-11-20T01:02:04;0.20;66.29
65291;SHT30;51893;59.754;10.110;2022-11-20T01:04:31;0.18;66.11
65291;SHT30;51893;59.754;10.110;2022-11-20T01:07:00;0.18;66.26
65291;SHT30;51893;59.754;10.110;2022-11-20T01:09:28;0.21;66.66
65291;SHT30;51893;59.754;10.110;2022-11-20T01:11:56;0.26;66.97
65291;SHT30;51893;59.754;10.110;2022-11-20T01:14:25;0.28;67.01
65291;SHT30;51893;59.754;10.110;2022-11-20T01:16:54;0.31;66.81
65291;SHT30;51893;59.754;10.110;2022-11-20T01:19:24;0.27;66.63
65291;SHT30;51893;59.754;10.110;2022-11-20T01:21:53;0.24;66.49
65291;SHT30;51893;59.754;10.110;2022-11-20T01:24:23;0.26;66.34
65291;SHT30;51893;59.754;10.110;2022-11-20T01:26:53;0.27;66.43
65291;SHT30;51893;59.754;10.110;2022-11-20T01:29:23;0.29;66.66
65291;SHT30;51893;59.754;10.110;2022-11-20T01:31:56;0.28;66.28
65291;SHT30;51893;59.754;10.110;2022-11-20T01:34:25;0.28;66.40
65291;SHT30;51893;59.754;10.110;2022-11-20T01:36:53;0.29;66.09
65291;SHT30;51893;59.754;10.110;2022-11-20T01:39:23;0.37;66.13
65291;SHT30;51893;59.754;10.110;2022-11-20T01:41:54;0.43;66.12
65291;SHT30;51893;59.754;10.110;2022-11-20T01:44:58;0.46;66.13
65291;SHT30;51893;59.754;10.110;2022-11-20T01:47:34;0.49;66.41
65291;SHT30;51893;59.754;10.110;2022-11-20T01:50:18;0.53;66.45
65291;SHT30;51893;59.754;10.110;2022-11-20T01:52:54;0.50;65.99
65291;SHT30;51893;59.754;10.110;2022-11-20T01:55:36;0.45;65.72
65291;SHT30;51893;59.754;10.110;2022-11-20T01:58:12;0.46;66.04
65291;SHT30;51893;59.754;10.110;2022-11-20T02:00:43;0.45;66.06
65291;SHT30;51893;59.754;10.110;2022-11-20T02:03:12;0.47;66.09
65291;SHT30;51893;59.754;10.110;2022-11-20T02:09:02;0.49;66.20
65291;SHT30;51893;59.754;10.110;2022-11-20T02:11:31;0.49;66.08
65291;SHT30;51893;59.754;10.110;2022-11-20T02:13:59;0.49;65.98
65291;SHT30;51893;59.754;10.110;2022-11-20T02:16:33;0.46;66.07
65291;SHT30;51893;59.754;10.110;2022-11-20T02:19:10;0.48;66.19
65291;SHT30;51893;59.754;10.110;2022-11-20T02:24:52;0.44;66.40
65291;SHT30;51893;59.754;10.110;2022-11-20T02:27:20;0.44;66.58
65291;SHT30;51893;59.754;10.110;2022-11-20T02:29:53;0.43;66.55
65291;SHT30;51893;59.754;10.110;2022-11-20T02:32:33;0.44;66.45
65291;SHT30;51893;59.754;10.110;2022-11-20T02:35:07;0.44;66.33
65291;SHT30;51893;59.754;10.110;2022-11-20T02:37:52;0.49;66.51
65291;SHT30;51893;59.754;10.110;2022-11-20T02:40:23;0.48;66.60
65291;SHT30;51893;59.754;10.110;2022-11-20T02:42:55;0.50;66.88
65291;SHT30;51893;59.754;10.110;2022-11-20T02:45:24;0.50;66.85
65291;SHT30;51893;59.754;10.110;2022-11-20T02:47:55;0.42;66.61
65291;SHT30;51893;59.754;10.110;2022-11-20T02:50:23;0.38;66.73
65291;SHT30;51893;59.754;10.110;2022-11-20T02:52:58;0.39;66.90
65291;SHT30;51893;59.754;10.110;2022-11-20T02:55:28;0.37;66.93
65291;SHT30;51893;59.754;10.110;2022-11-20T02:57:57;0.33;66.90
65291;SHT30;51893;59.754;10.110;2022-11-20T03:00:24;0.35;67.28
65291;SHT30;51893;59.754;10.110;2022-11-20T03:02:54;0.36;67.53
65291;SHT30;51893;59.754;10.110;2022-11-20T03:05:22;0.37;67.52
65291;SHT30;51893;59.754;10.110;2022-11-20T03:07:50;0.39;67.58
65291;SHT30;51893;59.754;10.110;2022-11-20T03:10:21;0.41;67.18
65291;SHT30;51893;59.754;10.110;2022-11-20T03:12:53;0.40;67.02
65291;SHT30;51893;59.754;10.110;2022-11-20T03:15:27;0.41;67.17
65291;SHT30;51893;59.754;10.110;2022-11-20T03:17:57;0.41;67.43
65291;SHT30;51893;59.754;10.110;2022-11-20T03:20:25;0.39;67.60
65291;SHT30;51893;59.754;10.110;2022-11-20T03:22:54;0.39;67.85
65291;SHT30;51893;59.754;10.110;2022-11-20T03:25:23;0.36;67.64
65291;SHT30;51893;59.754;10.110;2022-11-20T03:27:55;0.35;67.59
65291;SHT30;51893;59.754;10.110;2022-11-20T03:30:24;0.34;67.64
65291;SHT30;51893;59.754;10.110;2022-11-20T03:32:58;0.33;67.59
65291;SHT30;51893;59.754;10.110;2022-11-20T03:35:26;0.31;67.63
65291;SHT30;51893;59.754;10.110;2022-11-20T03:37:54;0.37;67.70
65291;SHT30;51893;59.754;10.110;2022-11-20T03:40:25;0.36;67.74
65291;SHT30;51893;59.754;10.110;2022-11-20T03:42:53;0.38;67.52
65291;SHT30;51893;59.754;10.110;2022-11-20T03:45:22;0.37;67.28
65291;SHT30;51893;59.754;10.110;2022-11-20T03:47:50;0.40;67.39
65291;SHT30;51893;59.754;10.110;2022-11-20T03:50:19;0.40;67.49
65291;SHT30;51893;59.754;10.110;2022-11-20T03:52:49;0.41;67.41
65291;SHT30;51893;59.754;10.110;2022-11-20T03:55:18;0.43;67.55
65291;SHT30;51893;59.754;10.110;2022-11-20T03:57:47;0.43;67.59
65291;SHT30;51893;59.754;10.110;2022-11-20T04:00:16;0.43;67.54
65291;SHT30;51893;59.754;10.110;2022-11-20T04:02:44;0.47;67.61
65291;SHT30;51893;59.754;10.110;2022-11-20T04:05:16;0.52;67.69
65291;SHT30;51893;59.754;10.110;2022-11-20T04:07:44;0.55;67.18
65291;SHT30;51893;59.754;10.110;2022-11-20T04:10:13;0.58;67.05
65291;SHT30;51893;59.754;10.110;2022-11-20T04:12:43;0.56;67.16
65291;SHT30;51893;59.754;10.110;2022-11-20T04:15:11;0.55;67.21
65291;SHT30;51893;59.754;10.110;2022-11-20T04:17:41;0.50;67.38
65291;SHT30;51893;59.754;10.110;2022-11-20T04:20:09;0.47;67.55
65291;SHT30;51893;59.754;10.110;2022-11-20T04:22:39;0.42;67.34
65291;SHT30;51893;59.754;10.110;2022-11-20T04:25:09;0.39;67.14
65291;SHT30;51893;59.754;10.110;2022-11-20T04:27:38;0.41;67.22
65291;SHT30;51893;59.754;10.110;2022-11-20T04:30:07;0.37;67.19
65291;SHT30;51893;59.754;10.110;2022-11-20T04:32:35;0.32;67.42
65291;SHT30;51893;59.754;10.110;2022-11-20T04:35:07;0.31;67.66
65291;SHT30;51893;59.754;10.110;2022-11-20T04:37:38;0.32;67.79
65291;SHT30;51893;59.754;10.110;2022-11-20T04:40:09;0.31;67.83
65291;SHT30;51893;59.754;10.110;2022-11-20T04:42:38;0.32;67.84
65291;SHT30;51893;59.754;10.110;2022-11-20T04:45:07;0.29;67.34
65291;SHT30;51893;59.754;10.110;2022-11-20T04:47:41;0.27;67.50
65291;SHT30;51893;59.754;10.110;2022-11-20T04:50:08;0.28;67.75
65291;SHT30;51893;59.754;10.110;2022-11-20T04:52:40;0.28;67.53
65291;SHT30;51893;59.754;10.110;2022-11-20T04:55:08;0.29;67.66
65291;SHT30;51893;59.754;10.110;2022-11-20T04:57:38;0.30;67.73
65291;SHT30;51893;59.754;10.110;2022-11-20T05:00:06;0.31;67.51
65291;SHT30;51893;59.754;10.110;2022-11-20T05:02:38;0.33;67.46
65291;SHT30;51893;59.754;10.110;2022-11-20T05:05:10;0.35;67.58
65291;SHT30;51893;59.754;10.110;2022-11-20T05:07:39;0.38;67.32
65291;SHT30;51893;59.754;10.110;2022-11-20T05:10:07;0.35;67.14
65291;SHT30;51893;59.754;10.110;2022-11-20T05:12:36;0.31;67.04
65291;SHT30;51893;59.754;10.110;2022-11-20T05:15:04;0.30;67.25
65291;SHT30;51893;59.754;10.110;2022-11-20T05:17:36;0.29;67.45
65291;SHT30;51893;59.754;10.110;2022-11-20T05:20:08;0.28;67.51
65291;SHT30;51893;59.754;10.110;2022-11-20T05:22:38;0.29;67.37
65291;SHT30;51893;59.754;10.110;2022-11-20T05:25:06;0.29;67.38
65291;SHT30;51893;59.754;10.110;2022-11-20T05:27:36;0.28;67.43
65291;SHT30;51893;59.754;10.110;2022-11-20T05:30:05;0.26;67.09
65291;SHT30;51893;59.754;10.110;2022-11-20T05:32:39;0.25;67.24
65291;SHT30;51893;59.754;10.110;2022-11-20T05:35:07;0.28;67.55
65291;SHT30;51893;59.754;10.110;2022-11-20T05:37:36;0.26;67.03
65291;SHT30;51893;59.754;10.110;2022-11-20T05:40:06;0.20;66.92
65291;SHT30;51893;59.754;10.110;2022-11-20T05:42:38;0.18;67.18
65291;SHT30;51893;59.754;10.110;2022-11-20T05:45:07;0.22;67.40
65291;SHT30;51893;59.754;10.110;2022-11-20T05:47:37;0.26;67.46
65291;SHT30;51893;59.754;10.110;2022-11-20T05:50:05;0.24;67.29
65291;SHT30;51893;59.754;10.110;2022-11-20T05:52:35;0.24;67.52
65291;SHT30;51893;59.754;10.110;2022-11-20T05:55:05;0.24;67.49
65291;SHT30;51893;59.754;10.110;2022-11-20T05:57:35;0.23;67.34
65291;SHT30;51893;59.754;10.110;2022-11-20T06:00:04;0.24;67.37
65291;SHT30;51893;59.754;10.110;2022-11-20T06:02:36;0.30;67.40
65291;SHT30;51893;59.754;10.110;2022-11-20T06:05:04;0.35;67.29
65291;SHT30;51893;59.754;10.110;2022-11-20T06:07:37;0.36;67.13
65291;SHT30;51893;59.754;10.110;2022-11-20T06:10:08;0.34;67.06
65291;SHT30;51893;59.754;10.110;2022-11-20T06:12:41;0.33;67.17
65291;SHT30;51893;59.754;10.110;2022-11-20T06:15:13;0.34;67.45
65291;SHT30;51893;59.754;10.110;2022-11-20T06:17:46;0.36;67.22
65291;SHT30;51893;59.754;10.110;2022-11-20T06:20:14;0.36;67.06
65291;SHT30;51893;59.754;10.110;2022-11-20T06:22:43;0.32;66.86
65291;SHT30;51893;59.754;10.110;2022-11-20T06:25:11;0.34;67.05
65291;SHT30;51893;59.754;10.110;2022-11-20T06:27:41;0.32;67.02
65291;SHT30;51893;59.754;10.110;2022-11-20T06:30:11;0.29;67.24
65291;SHT30;51893;59.754;10.110;2022-11-20T06:32:40;0.30;67.28
65291;SHT30;51893;59.754;10.110;2022-11-20T06:35:15;0.28;67.05
65291;SHT30;51893;59.754;10.110;2022-11-20T06:37:44;0.29;66.97
65291;SHT30;51893;59.754;10.110;2022-11-20T06:40:19;0.25;67.21
65291;SHT30;51893;59.754;10.110;2022-11-20T06:42:47;0.23;67.43
65291;SHT30;51893;59.754;10.110;2022-11-20T06:45:15;0.22;67.20
65291;SHT30;51893;59.754;10.110;2022-11-20T06:47:52;0.23;67.29
65291;SHT30;51893;59.754;10.110;2022-11-20T06:50:20;0.28;67.14
65291;SHT30;51893;59.754;10.110;2022-11-20T06:52:49;0.30;66.95
65291;SHT30;51893;59.754;10.110;2022-11-20T06:55:17;0.30;66.86
65291;SHT30;51893;59.754;10.110;2022-11-20T06:57:46;0.35;67.14
65291;SHT30;51893;59.754;10.110;2022-11-20T07:00:20;0.37;66.90
65291;SHT30;51893;59.754;10.110;2022-11-20T07:02:49;0.37;67.02
65291;SHT30;51893;59.754;10.110;2022-11-20T07:05:19;0.32;66.94
65291;SHT30;51893;59.754;10.110;2022-11-20T07:07:49;0.31;67.19
65291;SHT30;51893;59.754;10.110;2022-11-20T07:10:18;0.29;67.26
65291;SHT30;51893;59.754;10.110;2022-11-20T07:12:50;0.25;67.43
65291;SHT30;51893;59.754;10.110;2022-11-20T07:15:21;0.24;67.23
65291;SHT30;51893;59.754;10.110;2022-11-20T07:17:51;0.26;67.40
65291;SHT30;51893;59.754;10.110;2022-11-20T07:20:23;0.27;67.37
65291;SHT30;51893;59.754;10.110;2022-11-20T07:22:59;0.28;67.34
65291;SHT30;51893;59.754;10.110;2022-11-20T07:25:27;0.25;67.31
65291;SHT30;51893;59.754;10.110;2022-11-20T07:27:57;0.23;67.27
65291;SHT30;51893;59.754;10.110;2022-11-20T07:30:29;0.22;67.48
65291;SHT30;51893;59.754;10.110;2022-11-20T07:32:59;0.23;67.61
65291;SHT30;51893;59.754;10.110;2022-11-20T07:35:27;0.21;67.54
65291;SHT30;51893;59.754;10.110;2022-11-20T07:37:56;0.22;67.49
65291;SHT30;51893;59.754;10.110;2022-11-20T07:40:25;0.21;67.44
65291;SHT30;51893;59.754;10.110;2022-11-20T07:42:55;0.18;67.71
65291;SHT30;51893;59.754;10.110;2022-11-20T07:45:25;0.19;67.69
65291;SHT30;51893;59.754;10.110;2022-11-20T07:47:53;0.22;67.69
65291;SHT30;51893;59.754;10.110;2022-11-20T07:50:22;0.25;67.74
65291;SHT30;51893;59.754;10.110;2022-11-20T07:52:51;0.27;67.74
65291;SHT30;51893;59.754;10.110;2022-11-20T07:55:21;0.30;67.87
65291;SHT30;51893;59.754;10.110;2022-11-20T07:57:53;0.30;67.72
65291;SHT30;51893;59.754;10.110;2022-11-20T08:00:26;0.27;67.65
65291;SHT30;51893;59.754;10.110;2022-11-20T08:02:56;0.24;67.75
65291;SHT30;51893;59.754;10.110;2022-11-20T08:05:27;0.23;67.83
65291;SHT30;51893;59.754;10.110;2022-11-20T08:08:02;0.22;67.98
65291;SHT30;51893;59.754;10.110;2022-11-20T08:10:36;0.23;67.88
65291;SHT30;51893;59.754;10.110;2022-11-20T08:13:04;0.25;67.78
65291;SHT30;51893;59.754;10.110;2022-11-20T08:15:57;0.23;67.71
65291;SHT30;51893;59.754;10.110;2022-11-20T08:18:27;0.22;67.93
65291;SHT30;51893;59.754;10.110;2022-11-20T08:21:03;0.22;67.96
65291;SHT30;51893;59.754;10.110;2022-11-20T08:23:35;0.27;67.80
65291;SHT30;51893;59.754;10.110;2022-11-20T08:26:28;0.29;67.88
65291;SHT30;51893;59.754;10.110;2022-11-20T08:28:57;0.30;67.99
65291;SHT30;51893;59.754;10.110;2022-11-20T08:31:36;0.30;68.02
65291;SHT30;51893;59.754;10.110;2022-11-20T08:34:24;0.29;68.05
65291;SHT30;51893;59.754;10.110;2022-11-20T08:36:52;0.34;68.08
65291;SHT30;51893;59.754;10.110;2022-11-20T08:39:29;0.40;68.19
65291;SHT30;51893;59.754;10.110;2022-11-20T08:41:57;0.43;68.02
65291;SHT30;51893;59.754;10.110;2022-11-20T08:44:40;0.46;67.94
65291;SHT30;51893;59.754;10.110;2022-11-20T08:47:15;0.49;67.90
65291;SHT30;51893;59.754;10.110;2022-11-20T08:49:42;0.49;67.85
65291;SHT30;51893;59.754;10.110;2022-11-20T08:52:14;0.49;67.86
65291;SHT30;51893;59.754;10.110;2022-11-20T08:54:43;0.48;67.78
65291;SHT30;51893;59.754;10.110;2022-11-20T08:57:11;0.49;67.85
65291;SHT30;51893;59.754;10.110;2022-11-20T08:59:40;0.52;67.96
65291;SHT30;51893;59.754;10.110;2022-11-20T09:02:30;0.54;67.77
65291;SHT30;51893;59.754;10.110;2022-11-20T09:05:00;0.54;67.72
65291;SHT30;51893;59.754;10.110;2022-11-20T09:07:37;0.55;67.76
65291;SHT30;51893;59.754;10.110;2022-11-20T09:10:05;0.52;67.60
65291;SHT30;51893;59.754;10.110;2022-11-20T09:12:51;0.54;67.75
65291;SHT30;51893;59.754;10.110;2022-11-20T09:15:27;0.54;67.47
65291;SHT30;51893;59.754;10.110;2022-11-20T09:18:02;0.56;67.72
65291;SHT30;51893;59.754;10.110;2022-11-20T09:20:33;0.60;67.59
65291;SHT30;51893;59.754;10.110;2022-11-20T09:23:03;0.56;67.55
65291;SHT30;51893;59.754;10.110;2022-11-20T09:25:32;0.56;67.47
65291;SHT30;51893;59.754;10.110;2022-11-20T09:28:07;0.61;67.31
65291;SHT30;51893;59.754;10.110;2022-11-20T09:30:37;0.68;67.37
65291;SHT30;51893;59.754;10.110;2022-11-20T09:33:08;0.68;67.01
65291;SHT30;51893;59.754;10.110;2022-11-20T09:35:38;0.66;66.95
65291;SHT30;51893;59.754;10.110;2022-11-20T09:38:10;0.66;67.11
65291;SHT30;51893;59.754;10.110;2022-11-20T09:40:39;0.69;67.25
65291;SHT30;51893;59.754;10.110;2022-11-20T09:47:08;0.71;67.37
65291;SHT30;51893;59.754;10.110;2022-11-20T09:56:21;0.70;66.93
65291;SHT30;51893;59.754;10.110;2022-11-20T09:58:50;0.67;66.86
65291;SHT30;51893;59.754;10.110;2022-11-20T10:01:36;0.66;66.91
65291;SHT30;51893;59.754;10.110;2022-11-20T10:04:18;0.63;66.94
65291;SHT30;51893;59.754;10.110;2022-11-20T10:10:19;0.61;67.09
65291;SHT30;51893;59.754;10.110;2022-11-20T10:17:02;0.61;67.17
65291;SHT30;51893;59.754;10.110;2022-11-20T10:20:10;0.63;67.03
65291;SHT30;51893;59.754;10.110;2022-11-20T10:23:06;0.63;66.91
65291;SHT30;51893;59.754;10.110;2022-11-20T10:25:46;0.63;66.90
65291;SHT30;51893;59.754;10.110;2022-11-20T10:31:40;0.57;67.01
65291;SHT30;51893;59.754;10.110;2022-11-20T10:39:47;0.58;66.66
65291;SHT30;51893;59.754;10.110;2022-11-20T10:42:49;0.59;66.42
65291;SHT30;51893;59.754;10.110;2022-11-20T10:46:01;0.65;66.29
65291;SHT30;51893;59.754;10.110;2022-11-20T10:49:11;0.72;66.81
65291;SHT30;51893;59.754;10.110;2022-11-20T10:52:47;0.77;67.25
65291;SHT30;51893;59.754;10.110;2022-11-20T10:55:50;0.80;67.71
65291;SHT30;51893;59.754;10.110;2022-11-20T11:02:22;0.89;66.77
65291;SHT30;51893;59.754;10.110;2022-11-20T11:05:16;0.97;66.49
65291;SHT30;51893;59.754;10.110;2022-11-20T11:07:55;1.05;66.61
65291;SHT30;51893;59.754;10.110;2022-11-20T11:10:39;1.09;67.14
65291;SHT30;51893;59.754;10.110;2022-11-20T11:13:19;1.14;67.17
65291;SHT30;51893;59.754;10.110;2022-11-20T11:15:54;1.17;66.84
65291;SHT30;51893;59.754;10.110;2022-11-20T11:18:28;1.24;66.74
65291;SHT30;51893;59.754;10.110;2022-11-20T11:21:00;1.24;66.40
65291;SHT30;51893;59.754;10.110;2022-11-20T11:23:36;1.23;66.22
65291;SHT30;51893;59.754;10.110;2022-11-20T11:26:20;1.26;66.23
65291;SHT30;51893;59.754;10.110;2022-11-20T11:28:53;1.26;66.04
65291;SHT30;51893;59.754;10.110;2022-11-20T11:31:34;1.27;66.08
65291;SHT30;51893;59.754;10.110;2022-11-20T11:34:13;1.27;66.15
65291;SHT30;51893;59.754;10.110;2022-11-20T11:37:19;1.23;65.98
65291;SHT30;51893;59.754;10.110;2022-11-20T11:39:50;1.20;66.01
65291;SHT30;51893;59.754;10.110;2022-11-20T11:42:42;1.23;66.18
65291;SHT30;51893;59.754;10.110;2022-11-20T11:46:01;1.29;65.73
65291;SHT30;51893;59.754;10.110;2022-11-20T12:01:13;1.25;65.73
65291;SHT30;51893;59.754;10.110;2022-11-20T12:07:41;1.30;65.54
65291;SHT30;51893;59.754;10.110;2022-11-20T12:10:34;1.26;65.75
65291;SHT30;51893;59.754;10.110;2022-11-20T12:13:17;1.23;65.78
65291;SHT30;51893;59.754;10.110;2022-11-20T12:16:37;1.24;65.90
65291;SHT30;51893;59.754;10.110;2022-11-20T12:19:13;1.19;65.80
65291;SHT30;51893;59.754;10.110;2022-11-20T12:25:38;1.06;65.72
65291;SHT30;51893;59.754;10.110;2022-11-20T12:31:29;1.08;66.10
65291;SHT30;51893;59.754;10.110;2022-11-20T12:37:45;1.07;66.31
65291;SHT30;51893;59.754;10.110;2022-11-20T12:51:21;1.11;66.76
65291;SHT30;51893;59.754;10.110;2022-11-20T13:00:27;1.10;67.06
65291;SHT30;51893;59.754;10.110;2022-11-20T13:08:52;1.14;66.89
65291;SHT30;51893;59.754;10.110;2022-11-20T13:20:32;1.15;67.02
65291;SHT30;51893;59.754;10.110;2022-11-20T13:23:03;1.16;66.63
65291;SHT30;51893;59.754;10.110;2022-11-20T13:25:31;1.16;66.54
65291;SHT30;51893;59.754;10.110;2022-11-20T13:30:52;1.17;66.47
65291;SHT30;51893;59.754;10.110;2022-11-20T13:33:34;1.18;66.71
65291;SHT30;51893;59.754;10.110;2022-11-20T13:36:19;1.22;66.83
65291;SHT30;51893;59.754;10.110;2022-11-20T13:38:54;1.28;67.20
65291;SHT30;51893;59.754;10.110;2022-11-20T13:44:27;1.30;67.10
65291;SHT30;51893;59.754;10.110;2022-11-20T13:47:22;1.29;67.28
65291;SHT30;51893;59.754;10.110;2022-11-20T13:49:54;1.28;67.31
65291;SHT30;51893;59.754;10.110;2022-11-20T13:55:59;1.42;67.08
65291;SHT30;51893;59.754;10.110;2022-11-20T14:01:31;1.51;66.49
65291;SHT30;51893;59.754;10.110;2022-11-20T14:04:07;1.47;66.49
65291;SHT30;51893;59.754;10.110;2022-11-20T14:06:44;1.45;66.51
65291;SHT30;51893;59.754;10.110;2022-11-20T14:09:28;1.43;66.42
65291;SHT30;51893;59.754;10.110;2022-11-20T14:11:58;1.39;66.34
65291;SHT30;51893;59.754;10.110;2022-11-20T14:14:28;1.34;66.45
65291;SHT30;51893;59.754;10.110;2022-11-20T14:19:52;1.29;66.55
65291;SHT30;51893;59.754;10.110;2022-11-20T14:22:26;1.25;66.52
65291;SHT30;51893;59.754;10.110;2022-11-20T14:25:05;1.24;66.47
65291;SHT30;51893;59.754;10.110;2022-11-20T14:27:51;1.18;66.44
65291;SHT30;51893;59.754;10.110;2022-11-20T14:30:25;1.16;66.43
65291;SHT30;51893;59.754;10.110;2022-11-20T14:33:12;1.13;66.24
65291;SHT30;51893;59.754;10.110;2022-11-20T14:35:44;1.15;66.62
65291;SHT30;51893;59.754;10.110;2022-11-20T14:38:22;1.12;66.50
65291;SHT30;51893;59.754;10.110;2022-11-20T14:41:07;1.11;66.50
65291;SHT30;51893;59.754;10.110;2022-11-20T14:43:51;1.10;66.65
65291;SHT30;51893;59.754;10.110;2022-11-20T14:46:25;1.14;66.77
65291;SHT30;51893;59.754;10.110;2022-11-20T14:48:56;1.13;66.94
65291;SHT30;51893;59.754;10.110;2022-11-20T14:51:36;1.07;66.93
65291;SHT30;51893;59.754;10.110;2022-11-20T14:54:12;1.08;67.09
65291;SHT30;51893;59.754;10.110;2022-11-20T14:56:55;1.08;66.91
65291;SHT30;51893;59.754;10.110;2022-11-20T14:59:28;1.03;67.02
65291;SHT30;51893;59.754;10.110;2022-11-20T15:02:10;1.05;67.30
65291;SHT30;51893;59.754;10.110;2022-11-20T15:04:50;1.11;67.34
65291;SHT30;51893;59.754;10.110;2022-11-20T15:07:35;1.18;67.49
65291;SHT30;51893;59.754;10.110;2022-11-20T15:10:20;1.26;67.09
65291;SHT30;51893;59.754;10.110;2022-11-20T15:12:56;1.27;66.84
65291;SHT30;51893;59.754;10.110;2022-11-20T15:15:52;1.28;66.91
65291;SHT30;51893;59.754;10.110;2022-11-20T15:18:40;1.24;66.56
65291;SHT30;51893;59.754;10.110;2022-11-20T15:21:14;1.16;66.55
65291;SHT30;51893;59.754;10.110;2022-11-20T15:23:59;1.09;66.68
65291;SHT30;51893;59.754;10.110;2022-11-20T15:26:31;1.04;66.80
65291;SHT30;51893;59.754;10.110;2022-11-20T15:29:04;1.00;66.94
65291;SHT30;51893;59.754;10.110;2022-11-20T15:31:33;0.97;67.09
65291;SHT30;51893;59.754;10.110;2022-11-20T15:34:05;0.95;67.41
65291;SHT30;51893;59.754;10.110;2022-11-20T15:36:42;0.97;67.44
65291;SHT30;51893;59.754;10.110;2022-11-20T15:39:12;0.98;67.39
65291;SHT30;51893;59.754;10.110;2022-11-20T15:41:46;0.97;67.35
65291;SHT30;51893;59.754;10.110;2022-11-20T15:44:17;0.98;67.60
65291;SHT30;51893;59.754;10.110;2022-11-20T15:46:46;1.01;67.79
65291;SHT30;51893;59.754;10.110;2022-11-20T15:49:16;1.04;67.64
65291;SHT30;51893;59.754;10.110;2022-11-20T15:51:49;1.05;67.09
65291;SHT30;51893;59.754;10.110;2022-11-20T15:54:22;1.08;67.25
65291;SHT30;51893;59.754;10.110;2022-11-20T15:56:55;1.08;67.37
65291;SHT30;51893;59.754;10.110;2022-11-20T15:59:26;1.13;67.57
65291;SHT30;51893;59.754;10.110;2022-11-20T16:01:57;1.14;67.21
65291;SHT30;51893;59.754;10.110;2022-11-20T16:04:44;1.16;67.15
65291;SHT30;51893;59.754;10.110;2022-11-20T16:07:18;1.13;66.86
65291;SHT30;51893;59.754;10.110;2022-11-20T16:09:50;1.12;66.98
65291;SHT30;51893;59.754;10.110;2022-11-20T16:12:19;1.10;67.11
65291;SHT30;51893;59.754;10.110;2022-11-20T16:15:12;1.11;67.21
65291;SHT30;51893;59.754;10.110;2022-11-20T16:17:59;1.08;67.23
65291;SHT30;51893;59.754;10.110;2022-11-20T16:20:32;1.13;67.29
65291;SHT30;51893;59.754;10.110;2022-11-20T16:23:03;1.20;67.17
65291;SHT30;51893;59.754;10.110;2022-11-20T16:25:49;1.25;67.04
65291;SHT30;51893;59.754;10.110;2022-11-20T16:28:21;1.26;66.93
65291;SHT30;51893;59.754;10.110;2022-11-20T16:30:50;1.27;67.19
65291;SHT30;51893;59.754;10.110;2022-11-20T16:33:18;1.27;66.99
65291;SHT30;51893;59.754;10.110;2022-11-20T16:35:46;1.28;67.20
65291;SHT30;51893;59.754;10.110;2022-11-20T16:38:20;1.29;67.34
65291;SHT30;51893;59.754;10.110;2022-11-20T16:40:59;1.27;67.31
65291;SHT30;51893;59.754;10.110;2022-11-20T16:43:32;1.29;67.39
65291;SHT30;51893;59.754;10.110;2022-11-20T16:46:02;1.28;66.79
65291;SHT30;51893;59.754;10.110;2022-11-20T16:48:32;1.24;66.59
65291;SHT30;51893;59.754;10.110;2022-11-20T16:51:02;1.20;66.54
65291;SHT30;51893;59.754;10.110;2022-11-20T16:53:41;1.16;66.82
65291;SHT30;51893;59.754;10.110;2022-11-20T16:56:14;1.15;66.47
65291;SHT30;51893;59.754;10.110;2022-11-20T16:59:02;1.12;66.50
65291;SHT30;51893;59.754;10.110;2022-11-20T17:01:33;1.10;66.42
65291;SHT30;51893;59.754;10.110;2022-11-20T17:04:06;1.09;66.43
65291;SHT30;51893;59.754;10.110;2022-11-20T17:06:38;1.07;66.47
65291;SHT30;51893;59.754;10.110;2022-11-20T17:09:12;1.06;66.51
65291;SHT30;51893;59.754;10.110;2022-11-20T17:11:41;1.05;66.59
65291;SHT30;51893;59.754;10.110;2022-11-20T17:14:17;1.03;67.03
65291;SHT30;51893;59.754;10.110;2022-11-20T17:16:47;1.01;67.44
65291;SHT30;51893;59.754;10.110;2022-11-20T17:19:18;0.98;67.76
65291;SHT30;51893;59.754;10.110;2022-11-20T17:21:49;1.00;67.92
65291;SHT30;51893;59.754;10.110;2022-11-20T17:24:17;1.03;67.96
65291;SHT30;51893;59.754;10.110;2022-11-20T17:26:47;1.04;67.77
65291;SHT30;51893;59.754;10.110;2022-11-20T17:29:16;1.06;67.78
65291;SHT30;51893;59.754;10.110;2022-11-20T17:31:50;1.07;67.70
65291;SHT30;51893;59.754;10.110;2022-11-20T17:34:23;1.05;67.50
65291;SHT30;51893;59.754;10.110;2022-11-20T17:36:59;1.04;67.40
65291;SHT30;51893;59.754;10.110;2022-11-20T17:39:36;1.04;67.54
65291;SHT30;51893;59.754;10.110;2022-11-20T17:42:08;1.05;67.36
65291;SHT30;51893;59.754;10.110;2022-11-20T17:45:10;1.04;67.21
65291;SHT30;51893;59.754;10.110;2022-11-20T17:47:52;1.08;67.39
65291;SHT30;51893;59.754;10.110;2022-11-20T17:50:24;1.06;67.19
65291;SHT30;51893;59.754;10.110;2022-11-20T17:52:52;1.05;67.50
65291;SHT30;51893;59.754;10.110;2022-11-20T17:55:20;1.03;67.68
65291;SHT30;51893;59.754;10.110;2022-11-20T17:57:52;1.01;67.61
65291;SHT30;51893;59.754;10.110;2022-11-20T18:00:22;1.04;67.62
65291;SHT30;51893;59.754;10.110;2022-11-20T18:03:06;1.10;67.72
65291;SHT30;51893;59.754;10.110;2022-11-20T18:05:34;1.16;67.38